Time;durP1;ratioP1;P1;durP2;ratioP2;P2;SDS_P1;SDS_P2;PMS_P1;PMS_P2;Temp;Humidity;BMP_temperature;BMP_pressure;BME280_temperature;BME280_humidity;BME280_pressure;Samples;Min_cycle;Max_cycle;Signal;HPM_P1;HPM_P2
2021/12/16 00:01:45;;;;;;;7.05;4.85;;;;;;;8.31;84.59;102134.75;5009500;28;20370;-79
2021/12/16 00:05:12;;;;;;;6.80;4.00;;;;;;;8.26;84.43;102134.59;4986736;28;20049;-80
2021/12/16 00:29:59;;;;;;;7.88;5.05;;;;;;;7.87;85.92;102143.09;5004503;28;20048;-79
2021/12/16 00:32:31;;;;;;;7.07;4.78;;;;;;;7.83;85.70;102148.19;5002559;28;20042;-79
2021/12/16 00:34:57;;;;;;;8.80;5.03;;;;;;;7.78;86.26;102144.53;5003389;28;20514;-79
2021/12/16 00:37:25;;;;;;;11.45;5.13;;;;;;;7.73;86.63;102152.28;5001463;28;20105;-79
2021/12/16 00:39:50;;;;;;;6.70;4.47;;;;;;;7.67;86.24;102142.44;5003739;28;20030;-79
2021/12/16 00:42:45;;;;;;;6.65;4.75;;;;;;;7.62;86.94;102148.41;5003090;28;20504;-79
2021/12/16 00:47:59;;;;;;;9.40;4.88;;;;;;;7.50;86.58;102148.03;5003007;28;20132;-80
2021/12/16 00:58:12;;;;;;;8.68;5.22;;;;;;;7.05;88.68;102158.78;5006927;28;20073;-80
2021/12/16 01:00:43;;;;;;;8.93;5.75;;;;;;;6.99;88.65;102151.59;4987166;28;20030;-80
2021/12/16 01:03:24;;;;;;;7.85;5.30;;;;;;;6.90;89.38;102154.78;4974514;28;20065;-80
2021/12/16 01:06:10;;;;;;;9.88;5.55;;;;;;;6.84;89.29;102158.91;4997064;28;20056;-79
2021/12/16 01:10:04;;;;;;;9.15;6.13;;;;;;;6.80;90.00;102168.44;4989180;28;20084;-80
2021/12/16 01:34:05;;;;;;;10.02;6.07;;;;;;;6.90;89.51;102182.78;5003482;28;20067;-80
2021/12/16 01:50:07;;;;;;;10.98;7.25;;;;;;;7.34;88.05;102186.94;4982382;28;20031;-78
2021/12/16 01:53:01;;;;;;;11.43;6.72;;;;;;;7.35;87.77;102178.19;4998036;28;20046;-79
2021/12/16 01:55:36;;;;;;;10.80;7.32;;;;;;;7.40;87.61;102181.88;4983867;28;20101;-79
2021/12/16 01:58:13;;;;;;;12.95;7.88;;;;;;;7.42;87.63;102177.56;4997033;28;20041;-78
2021/12/16 02:00:55;;;;;;;11.80;7.97;;;;;;;7.50;87.15;102183.06;4996578;28;20053;-78
2021/12/16 02:03:37;;;;;;;11.10;7.50;;;;;;;7.55;86.61;102178.88;5000832;28;20041;-79
2021/12/16 02:06:15;;;;;;;12.95;8.77;;;;;;;7.55;86.83;102180.63;4984873;28;20117;-79
2021/12/16 02:08:40;;;;;;;11.38;7.15;;;;;;;7.58;87.33;102175.44;4981659;28;20057;-79
2021/12/16 02:27:43;;;;;;;16.20;10.27;;;;;;;7.71;86.80;102166.22;5000540;28;20045;-80
2021/12/16 02:35:48;;;;;;;17.58;10.55;;;;;;;7.78;86.75;102174.34;5001503;28;20067;-80
2021/12/16 02:38:17;;;;;;;15.05;10.15;;;;;;;7.86;86.83;102180.75;4983008;28;20096;-79
2021/12/16 02:40:46;;;;;;;17.55;11.13;;;;;;;7.87;86.27;102181.63;4998166;28;20567;-79
2021/12/16 02:48:39;;;;;;;18.92;11.38;;;;;;;7.98;86.25;102179.31;4984316;28;20069;-79
2021/12/16 02:51:10;;;;;;;19.55;11.93;;;;;;;7.99;85.61;102175.84;5000238;28;20049;-79
2021/12/16 02:53:39;;;;;;;17.35;11.35;;;;;;;8.04;85.42;102174.25;5000540;28;20112;-79
2021/12/16 02:56:04;;;;;;;19.95;12.48;;;;;;;8.05;85.53;102182.19;4984182;28;20030;-79
2021/12/16 02:58:31;;;;;;;20.58;12.70;;;;;;;8.08;85.29;102168.25;5001993;28;20536;-79
2021/12/16 03:01:02;;;;;;;19.35;13.13;;;;;;;8.10;85.59;102171.81;4997097;28;20026;-78
2021/12/16 03:03:29;;;;;;;23.02;12.73;;;;;;;8.13;85.08;102172.78;4985630;28;20076;-78
2021/12/16 03:05:55;;;;;;;21.88;13.23;;;;;;;8.19;84.96;102169.44;4984651;28;20041;-79
2021/12/16 03:08:21;;;;;;;21.23;13.77;;;;;;;8.23;85.02;102171.34;4997102;28;20042;-79
2021/12/16 03:13:30;;;;;;;23.70;14.85;;;;;;;8.26;84.37;102171.44;4983048;28;20050;-79
2021/12/16 03:16:08;;;;;;;20.30;12.88;;;;;;;8.33;83.77;102172.47;4988885;28;20034;-79
2021/12/16 03:21:39;;;;;;;21.05;13.02;;;;;;;8.33;83.94;102162.88;4967954;28;20137;-79
2021/12/16 03:24:26;;;;;;;20.17;12.85;;;;;;;8.36;83.80;102172.59;5005481;28;20080;-79
2021/12/16 03:35:30;;;;;;;25.70;13.80;;;;;;;8.50;82.77;102170.38;4982663;28;20037;-79
2021/12/16 03:38:01;;;;;;;22.35;12.95;;;;;;;8.52;82.63;102176.59;5004777;28;20496;-79
2021/12/16 03:40:27;;;;;;;22.10;14.70;;;;;;;8.49;83.12;102179.16;5006234;28;20030;-79
2021/12/16 03:43:10;;;;;;;19.00;12.57;;;;;;;8.49;82.33;102179.16;4981039;28;20065;-79
2021/12/16 03:48:53;;;;;;;18.88;12.10;;;;;;;8.52;82.60;102174.84;4983378;28;20481;-79
2021/12/16 03:51:36;;;;;;;20.83;13.20;;;;;;;8.51;82.84;102178.34;4986251;28;20038;-79
2021/12/16 03:54:15;;;;;;;23.15;13.68;;;;;;;8.53;82.58;102179.25;4990995;28;20129;-80
2021/12/16 03:56:42;;;;;;;23.35;13.70;;;;;;;8.47;83.03;102179.09;5009324;28;20030;-80
2021/12/16 03:59:17;;;;;;;22.83;12.43;;;;;;;8.55;82.82;102176.69;4992328;28;20033;-80
2021/12/16 04:02:05;;;;;;;23.25;13.95;;;;;;;8.59;82.42;102175.91;5004884;28;20408;-80
2021/12/16 04:04:39;;;;;;;23.15;13.38;;;;;;;8.65;82.74;102177.84;4986210;28;20038;-79
2021/12/16 04:07:05;;;;;;;19.90;13.35;;;;;;;8.63;82.23;102180.41;5008789;28;20030;-78
2021/12/16 04:09:37;;;;;;;23.75;14.02;;;;;;;8.61;81.98;102183.84;4999740;28;20555;-78
2021/12/16 04:12:18;;;;;;;23.65;14.30;;;;;;;8.58;82.33;102182.03;5002558;28;20041;-78
2021/12/16 04:14:44;;;;;;;25.63;15.23;;;;;;;8.62;82.58;102170.75;4984842;28;20038;-78
2021/12/16 04:17:14;;;;;;;24.35;15.00;;;;;;;8.63;82.47;102188.31;5004873;28;20030;-79
2021/12/16 04:19:56;;;;;;;23.38;14.43;;;;;;;8.62;82.11;102186.53;4987682;28;20022;-79
2021/12/16 04:22:30;;;;;;;24.33;14.75;;;;;;;8.64;82.65;102190.06;4995553;28;20042;-79
2021/12/16 04:25:01;;;;;;;21.75;14.43;;;;;;;8.67;82.04;102187.56;5000569;28;20076;-79
2021/12/16 04:27:30;;;;;;;26.50;15.32;;;;;;;8.73;82.51;102185.09;5000931;28;20030;-79
2021/12/16 04:29:56;;;;;;;20.35;12.70;;;;;;;8.77;82.11;102192.19;4984528;28;20034;-79
2021/12/16 04:32:21;;;;;;;24.15;14.40;;;;;;;8.80;82.46;102187.88;5005186;28;20423;-79
2021/12/16 04:34:47;;;;;;;20.75;13.07;;;;;;;8.78;82.00;102186.09;5002353;28;20041;-79
2021/12/16 04:37:12;;;;;;;22.67;15.10;;;;;;;8.76;81.65;102192.19;4999723;28;20066;-79
2021/12/16 04:39:40;;;;;;;23.50;13.25;;;;;;;8.80;81.89;102185.25;4995259;28;20412;-79
2021/12/16 04:42:07;;;;;;;21.92;13.20;;;;;;;8.74;81.91;102181.59;4985200;28;20049;-79
2021/12/16 04:44:34;;;;;;;23.90;13.27;;;;;;;8.77;82.39;102180.78;5004015;28;20532;-78
2021/12/16 04:47:03;;;;;;;23.42;15.10;;;;;;;8.72;82.43;102179.78;4998538;28;20102;-79
2021/12/16 04:49:32;;;;;;;24.90;16.25;;;;;;;8.72;82.92;102179.78;4991597;28;20048;-80
2021/12/16 04:52:00;;;;;;;23.50;14.23;;;;;;;8.72;82.80;102174.50;5002366;28;20504;-79
2021/12/16 04:54:29;;;;;;;27.48;15.60;;;;;;;8.69;82.98;102170.03;5006549;28;20419;-80
2021/12/16 04:56:58;;;;;;;24.40;16.60;;;;;;;8.68;83.01;102172.66;5005559;28;20034;-80
2021/12/16 04:59:26;;;;;;;25.15;16.00;;;;;;;8.68;83.15;102176.16;4982437;28;20045;-78
2021/12/16 05:02:03;;;;;;;23.35;16.42;;;;;;;8.62;82.96;102175.09;4989936;28;20661;-81
2021/12/16 05:05:01;;;;;;;26.63;17.17;;;;;;;8.63;83.26;102177.78;4984771;28;20037;-80
2021/12/16 05:07:27;;;;;;;27.30;18.05;;;;;;;8.65;82.88;102173.47;4998747;28;20029;-80
2021/12/16 05:10:13;;;;;;;26.10;17.73;;;;;;;8.66;82.90;102183.13;5011130;28;20110;-81
2021/12/16 05:12:50;;;;;;;29.05;18.00;;;;;;;8.60;83.12;102180.34;5010325;28;20040;-79
2021/12/16 05:15:21;;;;;;;24.27;17.27;;;;;;;8.60;83.87;102182.97;5007671;28;20220;-80
2021/12/16 05:17:50;;;;;;;33.22;20.08;;;;;;;8.58;83.51;102189.03;4989943;28;20057;-80
2021/12/16 05:20:24;;;;;;;31.10;20.15;;;;;;;8.62;83.41;102183.91;5003494;28;20037;-81
2021/12/16 05:26:02;;;;;;;26.75;16.58;;;;;;;8.63;83.72;102193.56;4992772;28;20111;-81
2021/12/16 05:28:29;;;;;;;26.50;17.65;;;;;;;8.62;83.42;102201.41;5010974;28;20072;-79
2021/12/16 05:30:56;;;;;;;27.17;17.63;;;;;;;8.56;84.09;102202.13;5004978;28;20041;-79
2021/12/16 05:33:23;;;;;;;27.50;18.25;;;;;;;8.46;84.60;102194.81;4989891;28;20591;-79
2021/12/16 05:35:51;;;;;;;27.02;17.88;;;;;;;8.34;85.25;102203.22;4992402;28;20025;-79
2021/12/16 05:38:17;;;;;;;28.58;18.98;;;;;;;8.26;85.57;102205.63;4995001;28;20499;-80
2021/12/16 05:40:43;;;;;;;30.80;18.10;;;;;;;8.32;86.23;102208.44;4995174;28;20037;-80
2021/12/16 05:43:17;;;;;;;29.42;18.50;;;;;;;8.27;85.80;102198.63;4991701;28;20038;-81
2021/12/16 05:45:44;;;;;;;29.50;20.45;;;;;;;8.25;86.50;102197.66;5003575;28;20057;-81
2021/12/16 05:48:13;;;;;;;29.65;19.00;;;;;;;8.27;86.64;102204.75;4987587;28;20416;-79
2021/12/16 05:50:43;;;;;;;34.63;19.77;;;;;;;8.29;86.46;102210.97;4987215;28;20124;-81
2021/12/16 05:53:08;;;;;;;29.27;20.38;;;;;;;8.26;86.06;102216.16;5003108;28;20493;-80
2021/12/16 05:55:34;;;;;;;31.08;19.75;;;;;;;8.27;86.25;102212.66;4994654;28;20029;-80
2021/12/16 05:58:20;;;;;;;26.73;18.38;;;;;;;8.32;86.17;102218.06;5010583;28;20175;-81
2021/12/16 06:00:54;;;;;;;28.15;18.88;;;;;;;8.39;85.51;102225.34;4995631;28;20029;-81
2021/12/16 06:03:21;;;;;;;27.75;18.42;;;;;;;8.32;85.69;102236.47;5012931;28;20088;-80
2021/12/16 06:05:47;;;;;;;27.33;17.95;;;;;;;8.27;85.18;102236.34;5013165;28;20034;-80
2021/12/16 06:08:13;;;;;;;28.35;18.70;;;;;;;8.32;85.62;102234.72;4995650;28;20088;-80
2021/12/16 06:13:28;;;;;;;30.38;18.63;;;;;;;8.39;85.26;102230.59;4993690;28;20105;-81
2021/12/16 06:22:25;;;;;;;32.75;19.98;;;;;;;8.38;85.01;102239.28;5005485;28;20037;-81
2021/12/16 06:27:12;;;;;;;26.55;18.25;;;;;;;8.41;85.44;102233.25;4935245;28;20138;-81
2021/12/16 06:29:41;;;;;;;29.83;18.92;;;;;;;8.43;84.68;102231.56;5005358;28;20483;-81
2021/12/16 06:32:07;;;;;;;28.85;18.48;;;;;;;8.41;84.51;102228.00;5005082;28;20041;-81
2021/12/16 06:34:32;;;;;;;30.63;18.63;;;;;;;8.44;84.22;102229.00;5013008;28;20357;-81
2021/12/16 06:36:58;;;;;;;26.27;18.48;;;;;;;8.45;83.64;102225.50;5012470;28;20048;-81
2021/12/16 06:39:25;;;;;;;29.30;19.42;;;;;;;8.41;83.85;102223.66;5008671;28;20030;-81
2021/12/16 06:42:20;;;;;;;28.08;16.15;;;;;;;8.46;83.50;102234.28;5003350;28;20030;-82
2021/12/16 06:44:56;;;;;;;29.27;17.73;;;;;;;8.48;82.67;102237.88;5002667;28;20085;-81
2021/12/16 06:47:29;;;;;;;29.60;16.85;;;;;;;8.48;83.28;102237.88;5005688;28;20034;-81
2021/12/16 06:49:55;;;;;;;28.17;16.58;;;;;;;8.44;83.10;102244.78;4985335;28;20048;-81
2021/12/16 06:52:27;;;;;;;26.65;17.20;;;;;;;8.49;82.60;102240.56;5007647;28;20034;-82
2021/12/16 06:55:15;;;;;;;27.50;15.98;;;;;;;8.54;82.44;102248.56;5006894;28;20443;-82
2021/12/16 06:57:50;;;;;;;27.08;16.77;;;;;;;8.56;82.53;102246.88;4991155;28;20467;-82
2021/12/16 07:00:29;;;;;;;25.15;15.88;;;;;;;8.61;82.70;102245.28;5008246;28;20065;-81
2021/12/16 07:03:03;;;;;;;25.48;17.30;;;;;;;8.55;83.15;102240.72;5004477;28;20045;-81
2021/12/16 07:05:39;;;;;;;31.58;18.50;;;;;;;8.55;83.20;102247.72;5007188;28;20508;-81
2021/12/16 07:08:09;;;;;;;29.27;18.42;;;;;;;8.51;82.92;102254.66;5004262;28;20056;-81
2021/12/16 07:10:35;;;;;;;25.50;16.77;;;;;;;8.54;83.47;102261.72;5007110;28;20496;-81
2021/12/16 07:13:06;;;;;;;28.73;18.35;;;;;;;8.56;82.69;102267.94;5010721;28;20025;-81
2021/12/16 07:15:33;;;;;;;28.38;18.48;;;;;;;8.50;83.45;102266.00;5003148;28;20129;-81
2021/12/16 07:17:58;;;;;;;33.08;18.88;;;;;;;8.52;83.05;102264.31;4988849;28;20042;-80
2021/12/16 07:20:30;;;;;;;28.85;17.42;;;;;;;8.59;82.86;102273.28;5004238;28;20046;-81
2021/12/16 07:22:57;;;;;;;30.17;17.70;;;;;;;8.52;83.77;102279.22;4972638;28;20065;-81
2021/12/16 07:25:23;;;;;;;28.85;18.90;;;;;;;8.48;83.69;102278.22;5003873;28;20041;-81
2021/12/16 07:27:49;;;;;;;32.55;19.92;;;;;;;8.47;84.28;102280.81;5010748;28;20033;-81
2021/12/16 07:30:17;;;;;;;32.85;19.35;;;;;;;8.49;84.34;102280.03;4986665;28;20042;-81
2021/12/16 07:32:42;;;;;;;30.00;19.52;;;;;;;8.56;84.44;102281.97;4990036;28;20076;-81
2021/12/16 07:35:13;;;;;;;28.98;19.33;;;;;;;8.58;83.60;102284.66;5006224;28;20034;-81
2021/12/16 07:37:39;;;;;;;34.88;19.80;;;;;;;8.57;83.81;102285.53;5007650;28;20101;-81
2021/12/16 07:40:07;;;;;;;32.42;20.10;;;;;;;8.62;84.14;102281.28;4989609;28;20026;-81
2021/12/16 07:42:46;;;;;;;29.60;18.00;;;;;;;8.69;83.19;102292.88;4990025;28;20076;-81
2021/12/16 07:45:13;;;;;;;30.77;18.85;;;;;;;8.61;83.82;102287.38;5005322;28;20050;-81
2021/12/16 07:47:39;;;;;;;31.17;18.00;;;;;;;8.62;83.64;102283.91;5009294;28;20034;-81
2021/12/16 07:50:06;;;;;;;29.42;18.50;;;;;;;8.63;84.02;102292.69;5006908;28;20104;-80
2021/12/16 07:52:33;;;;;;;34.45;19.17;;;;;;;8.65;83.60;102296.28;4999719;28;20049;-81
2021/12/16 07:54:58;;;;;;;28.25;18.90;;;;;;;8.65;83.34;102286.63;5014525;28;20033;-81
2021/12/16 07:57:23;;;;;;;29.80;18.52;;;;;;;8.72;83.30;102296.50;5014063;28;20412;-81
2021/12/16 07:59:49;;;;;;;30.60;18.85;;;;;;;8.64;83.55;102295.34;5016751;28;20033;-80
2021/12/16 08:02:15;;;;;;;31.98;18.88;;;;;;;8.66;82.98;102298.06;5008236;28;20030;-81
2021/12/16 08:04:43;;;;;;;27.10;17.40;;;;;;;8.65;83.04;102306.81;4998254;28;20048;-81
2021/12/16 08:07:11;;;;;;;29.17;18.35;;;;;;;8.64;82.31;102305.88;5010685;28;20033;-81
2021/12/16 08:09:40;;;;;;;32.22;18.95;;;;;;;8.61;82.67;102311.06;5013762;28;20105;-81
2021/12/16 08:12:08;;;;;;;30.13;18.63;;;;;;;8.61;82.68;102320.72;4990032;28;20041;-80
2021/12/16 08:14:33;;;;;;;31.08;18.45;;;;;;;8.62;82.69;102314.59;5008716;28;20069;-81
2021/12/16 08:16:59;;;;;;;31.48;18.95;;;;;;;8.67;82.37;102321.81;5006791;28;20041;-81
2021/12/16 08:19:24;;;;;;;33.28;18.30;;;;;;;8.68;82.77;102318.31;5008288;28;20096;-80
2021/12/16 08:21:49;;;;;;;32.65;19.98;;;;;;;8.64;82.59;102336.59;5008106;28;20499;-81
2021/12/16 08:24:16;;;;;;;31.92;20.17;;;;;;;8.67;82.34;102323.50;4986945;28;20041;-81
2021/12/16 08:26:44;;;;;;;33.53;20.92;;;;;;;8.67;82.41;102327.06;5007011;28;20034;-81
2021/12/16 08:29:10;;;;;;;28.65;19.20;;;;;;;8.66;83.16;102321.75;5007339;28;20038;-81
2021/12/16 08:31:35;;;;;;;35.75;20.90;;;;;;;8.65;83.66;102323.50;4989442;28;20057;-81
2021/12/16 08:34:01;;;;;;;32.42;20.08;;;;;;;8.69;83.41;102325.34;5011859;28;20476;-81
2021/12/16 08:36:27;;;;;;;35.35;21.65;;;;;;;8.75;83.11;102315.03;5011621;28;20038;-81
2021/12/16 08:38:53;;;;;;;33.72;20.45;;;;;;;8.91;82.27;102320.75;4987818;28;20034;-81
2021/12/16 08:41:23;;;;;;;32.92;20.65;;;;;;;8.91;82.49;102320.75;4991632;28;20579;-81
2021/12/16 08:43:49;;;;;;;35.45;20.83;;;;;;;8.96;82.86;102329.66;5005191;28;20073;-81
2021/12/16 08:46:17;;;;;;;34.88;19.55;;;;;;;9.02;82.44;102335.09;5009156;28;20076;-81
2021/12/16 08:48:44;;;;;;;32.30;20.30;;;;;;;9.07;82.27;102349.31;5005442;28;20030;-81
2021/12/16 08:51:11;;;;;;;33.75;20.77;;;;;;;9.02;81.82;102356.19;5008818;28;20030;-81
2021/12/16 08:53:36;;;;;;;31.33;20.10;;;;;;;8.97;82.10;102352.53;5002252;28;20045;-81
2021/12/16 08:56:04;;;;;;;33.38;19.73;;;;;;;8.88;82.12;102357.50;5006528;28;20046;-81
2021/12/16 08:58:31;;;;;;;34.30;20.65;;;;;;;8.90;82.87;102363.72;5007615;28;20050;-81
2021/12/16 09:01:01;;;;;;;34.35;21.65;;;;;;;8.91;82.07;102357.63;5005452;28;20100;-80
2021/12/16 09:03:27;;;;;;;38.95;21.98;;;;;;;8.87;82.88;102367.13;5007903;28;20030;-81
2021/12/16 09:05:53;;;;;;;37.03;22.98;;;;;;;8.84;83.00;102369.69;5009340;28;20129;-80
2021/12/16 09:08:18;;;;;;;40.08;23.15;;;;;;;8.90;82.80;102363.72;5009194;28;20488;-81
2021/12/16 09:10:44;;;;;;;37.47;21.27;;;;;;;8.89;82.87;102367.19;5008095;28;20076;-81
2021/12/16 09:13:14;;;;;;;36.47;22.15;;;;;;;8.92;83.40;102377.81;5006877;28;20500;-81
2021/12/16 09:15:44;;;;;;;38.78;21.70;;;;;;;8.89;83.63;102377.72;5006461;28;20107;-81
2021/12/16 09:18:11;;;;;;;35.45;22.17;;;;;;;8.87;83.75;102377.66;4998169;28;20500;-81
2021/12/16 09:20:37;;;;;;;36.15;23.30;;;;;;;8.78;84.41;102383.56;5009603;28;20037;-80
2021/12/16 09:23:04;;;;;;;38.55;22.80;;;;;;;8.72;85.01;102372.84;5010226;28;20099;-81
2021/12/16 09:25:30;;;;;;;36.80;22.70;;;;;;;8.61;86.82;102381.25;5014459;28;20030;-81
2021/12/16 09:27:55;;;;;;;38.28;23.27;;;;;;;8.56;87.33;102386.34;5010328;28;20075;-80
2021/12/16 09:30:24;;;;;;;39.03;23.10;;;;;;;8.52;87.92;102379.22;5010400;28;20042;-81
2021/12/16 09:32:51;;;;;;;45.00;24.75;;;;;;;8.41;89.56;102373.63;4973920;28;20048;-81
2021/12/16 09:35:18;;;;;;;40.45;24.58;;;;;;;8.46;89.51;102372.03;5007975;28;20038;-80
2021/12/16 09:37:43;;;;;;;48.53;27.40;;;;;;;8.47;90.46;102365.03;4989073;28;20049;-81
2021/12/16 09:40:13;;;;;;;48.33;28.40;;;;;;;8.50;89.89;102370.38;5007686;28;20068;-80
2021/12/16 09:42:39;;;;;;;42.83;26.98;;;;;;;8.51;90.50;102372.16;4994610;28;20065;-82
2021/12/16 09:45:08;;;;;;;46.08;24.85;;;;;;;8.52;90.36;102374.84;4989223;28;20385;-81
2021/12/16 09:47:35;;;;;;;43.15;25.67;;;;;;;8.49;90.86;102380.03;5012528;28;20757;-81
2021/12/16 09:50:03;;;;;;;44.42;26.92;;;;;;;8.52;91.28;102373.97;5004934;28;20406;-81
2021/12/16 09:52:28;;;;;;;47.28;24.83;;;;;;;8.59;91.37;102364.50;5008066;28;20501;-81
2021/12/16 09:54:53;;;;;;;46.25;25.30;;;;;;;8.58;91.40;102378.53;5004909;28;20053;-80
2021/12/16 09:57:19;;;;;;;45.92;24.90;;;;;;;8.58;91.61;102362.72;5007406;28;20034;-81
2021/12/16 09:59:45;;;;;;;49.25;26.48;;;;;;;8.56;91.40;102367.94;5010589;28;20069;-82
2021/12/16 10:02:15;;;;;;;37.65;23.13;;;;;;;8.54;91.96;102372.25;5012090;28;20073;-81
2021/12/16 10:04:41;;;;;;;41.50;22.92;;;;;;;8.49;91.99;102368.59;5006316;28;20069;-81
2021/12/16 10:07:13;;;;;;;44.75;23.52;;;;;;;8.45;91.98;102371.97;5005778;28;20048;-81
2021/12/16 10:09:39;;;;;;;44.92;23.50;;;;;;;8.48;91.69;102388.75;4989719;28;20066;-81
2021/12/16 10:12:11;;;;;;;36.55;21.35;;;;;;;8.39;92.56;102372.66;5004130;28;20085;-81
2021/12/16 10:17:23;;;;;;;45.03;24.60;;;;;;;8.35;93.01;102374.25;5005005;28;20069;-81
2021/12/16 10:19:49;;;;;;;37.42;22.23;;;;;;;8.35;93.38;102381.25;5006601;28;20117;-82
2021/12/16 10:22:39;;;;;;;39.95;21.38;;;;;;;8.31;93.33;102388.16;5004589;28;20473;-80
2021/12/16 10:25:18;;;;;;;38.90;22.33;;;;;;;8.40;93.66;102379.72;5003707;28;20085;-81
2021/12/16 10:28:14;;;;;;;39.03;22.52;;;;;;;8.47;93.18;102383.44;4971232;28;20046;-81
2021/12/16 10:30:53;;;;;;;44.53;24.10;;;;;;;8.43;93.36;102374.53;4979719;28;20460;-81
2021/12/16 10:33:38;;;;;;;39.63;23.58;;;;;;;8.48;93.63;102387.84;5005192;28;20057;-81
2021/12/16 10:36:23;;;;;;;40.45;25.00;;;;;;;8.56;92.51;102402.16;4989869;28;20488;-81
2021/12/16 10:38:55;;;;;;;39.40;23.25;;;;;;;8.48;93.30;102403.63;4989367;28;20472;-81
2021/12/16 10:41:25;;;;;;;38.40;22.88;;;;;;;8.47;93.55;102417.66;4987641;28;20030;-81
2021/12/16 10:43:59;;;;;;;45.67;25.70;;;;;;;8.53;92.86;102409.94;5013935;28;20034;-81
2021/12/16 10:46:28;;;;;;;40.45;23.45;;;;;;;8.59;93.58;102402.25;5007811;28;20068;-81
2021/12/16 10:48:58;;;;;;;47.05;25.00;;;;;;;8.69;93.21;102406.94;5010092;28;20034;-81
2021/12/16 10:51:35;;;;;;;49.95;26.33;;;;;;;8.76;92.28;102414.19;5011599;28;20052;-82
2021/12/16 10:54:11;;;;;;;46.40;25.48;;;;;;;8.66;92.22;102408.59;5009905;28;20465;-81
2021/12/16 10:56:36;;;;;;;39.47;23.02;;;;;;;8.65;92.78;102407.72;5002302;28;20038;-82
2021/12/16 10:59:13;;;;;;;46.13;25.13;;;;;;;8.59;93.41;102407.50;5007669;28;20093;-81
2021/12/16 11:01:49;;;;;;;45.92;25.35;;;;;;;8.66;92.87;102409.50;5003069;28;20385;-81
2021/12/16 11:04:29;;;;;;;44.80;25.52;;;;;;;8.67;92.78;102400.78;5010737;28;20444;-82
2021/12/16 11:07:12;;;;;;;49.00;25.08;;;;;;;8.66;93.31;102401.59;5004886;28;20026;-81
2021/12/16 11:09:48;;;;;;;42.28;22.88;;;;;;;8.73;92.79;102384.28;5001560;28;20374;-79
2021/12/16 11:12:33;;;;;;;42.08;24.17;;;;;;;8.76;92.77;102387.88;4986459;28;20523;-80
2021/12/16 11:15:09;;;;;;;38.03;21.48;;;;;;;8.76;93.11;102395.78;5006460;28;20042;-81
2021/12/16 11:17:45;;;;;;;40.63;22.80;;;;;;;8.78;92.89;102403.75;5004621;28;20419;-79
2021/12/16 11:20:19;;;;;;;35.55;21.30;;;;;;;8.75;92.94;102414.16;5010749;28;20028;-80
2021/12/16 11:22:48;;;;;;;37.17;21.85;;;;;;;8.70;93.10;102416.66;4991678;28;20400;-81
2021/12/16 11:25:22;;;;;;;45.35;24.83;;;;;;;8.68;93.12;102415.72;5009118;28;20533;-80
2021/12/16 11:27:52;;;;;;;50.30;25.67;;;;;;;8.72;92.94;102430.78;5011200;28;20473;-80
2021/12/16 11:30:33;;;;;;;38.58;22.15;;;;;;;8.66;93.17;102433.19;4991398;28;20404;-80
2021/12/16 11:33:27;;;;;;;44.50;22.25;;;;;;;8.61;93.43;102418.97;4980004;28;20180;-80
2021/12/16 11:36:04;;;;;;;46.92;22.88;;;;;;;8.59;94.36;102396.97;4974192;28;20042;-81
2021/12/16 11:38:44;;;;;;;34.42;21.70;;;;;;;8.66;93.88;102400.72;5003504;28;20081;-79
2021/12/16 11:41:42;;;;;;;36.97;21.45;;;;;;;8.71;93.71;102401.75;5008438;28;20046;-79
2021/12/16 11:44:21;;;;;;;40.10;20.70;;;;;;;8.76;93.72;102401.03;4952690;28;20512;-79
2021/12/16 11:47:02;;;;;;;38.40;21.70;;;;;;;8.80;93.73;102406.41;4999975;28;20073;-78
2021/12/16 11:49:31;;;;;;;39.13;21.55;;;;;;;8.83;93.59;102401.22;5001075;28;20038;-81
2021/12/16 11:52:03;;;;;;;34.65;21.25;;;;;;;8.85;93.45;102402.16;5003324;28;20032;-80
2021/12/16 11:54:36;;;;;;;45.57;23.37;;;;;;;8.85;93.17;102396.91;5000145;28;20052;-79
2021/12/16 11:57:12;;;;;;;36.00;20.13;;;;;;;8.82;92.88;102410.88;4982981;28;20726;-79
2021/12/16 12:00:01;;;;;;;39.30;22.00;;;;;;;8.75;93.50;102399.25;4999384;28;20095;-80
2021/12/16 12:02:31;;;;;;;46.00;22.33;;;;;;;8.78;93.90;102393.19;5002618;28;20133;-81
2021/12/16 12:05:27;;;;;;;42.35;22.38;;;;;;;8.78;93.17;102409.00;5003256;28;20077;-80
2021/12/16 12:07:54;;;;;;;41.83;22.17;;;;;;;8.80;93.89;102401.13;5009187;28;20083;-80
2021/12/16 12:10:45;;;;;;;32.10;18.55;;;;;;;8.81;93.68;102398.56;5008109;28;20038;-80
2021/12/16 12:13:14;;;;;;;33.83;19.38;;;;;;;8.85;93.45;102410.06;5008152;28;20045;-80
2021/12/16 12:16:20;;;;;;;30.73;18.38;;;;;;;8.80;93.33;102398.50;4978888;28;20045;-81
2021/12/16 12:18:49;;;;;;;34.92;19.25;;;;;;;8.82;93.58;102409.97;4932242;29;20044;-81
2021/12/16 12:21:41;;;;;;;33.15;18.20;;;;;;;8.85;93.29;102404.81;4948515;29;20035;-80
2021/12/16 12:24:11;;;;;;;36.50;19.70;;;;;;;8.82;93.99;102409.97;4989314;28;20050;-80
2021/12/16 12:26:46;;;;;;;39.88;20.38;;;;;;;8.86;93.69;102404.88;4987647;28;20060;-81
2021/12/16 12:29:19;;;;;;;31.05;18.85;;;;;;;8.86;93.32;102414.50;5004495;28;20058;-81
2021/12/16 12:31:49;;;;;;;31.48;18.23;;;;;;;8.90;92.73;102404.09;5007440;28;20042;-80
2021/12/16 12:34:16;;;;;;;36.00;19.25;;;;;;;8.91;93.24;102419.06;5004416;28;20038;-81
2021/12/16 12:36:43;;;;;;;33.55;18.65;;;;;;;8.94;93.53;102415.63;4987346;28;20058;-81
2021/12/16 12:39:10;;;;;;;34.30;19.90;;;;;;;8.91;93.23;102412.91;4996938;28;20041;-81
2021/12/16 12:41:36;;;;;;;33.22;19.02;;;;;;;8.98;92.94;102407.84;5011395;28;20038;-80
2021/12/16 12:44:04;;;;;;;36.15;18.85;;;;;;;9.03;92.55;102412.38;5011583;28;20064;-81
2021/12/16 12:46:33;;;;;;;29.75;17.35;;;;;;;9.02;92.91;102411.50;5005121;28;20497;-81
2021/12/16 12:49:01;;;;;;;27.67;16.48;;;;;;;9.05;92.80;102416.84;4997412;28;20065;-81
2021/12/16 12:51:31;;;;;;;29.52;16.65;;;;;;;9.02;92.60;102413.22;5004174;28;20038;-80
2021/12/16 12:53:57;;;;;;;30.10;16.73;;;;;;;8.98;92.65;102428.03;5007587;28;20048;-81
2021/12/16 12:56:29;;;;;;;29.15;15.98;;;;;;;8.92;92.34;102414.69;5003653;28;20042;-80
2021/12/16 12:59:11;;;;;;;23.48;15.60;;;;;;;8.97;92.43;102418.34;5007148;28;20030;-81
2021/12/16 13:01:44;;;;;;;24.15;15.00;;;;;;;8.91;92.95;102423.44;5005400;28;20519;-81
2021/12/16 13:04:32;;;;;;;26.70;15.63;;;;;;;8.87;93.24;102424.19;5004241;28;20066;-80
2021/12/16 13:07:07;;;;;;;27.25;14.70;;;;;;;8.87;93.34;102425.06;5006958;28;20042;-80
2021/12/16 13:09:47;;;;;;;25.05;15.35;;;;;;;8.88;92.50;102421.59;4980532;28;20050;-81
2021/12/16 13:12:21;;;;;;;28.90;16.00;;;;;;;8.89;92.93;102423.38;5009185;28;20520;-82
2021/12/16 13:14:50;;;;;;;25.50;15.43;;;;;;;8.89;92.83;102422.50;5006904;28;20121;-81
2021/12/16 13:23:26;;;;;;;24.80;14.55;;;;;;;8.87;93.33;102437.34;5008586;28;20445;-80
2021/12/16 13:23:55;;;;;;;25.27;14.23;;;;;;;8.95;93.07;102433.22;5006811;28;20037;-81
2021/12/16 13:26:36;;;;;;;23.90;14.10;;;;;;;8.89;93.20;102435.66;4995758;28;20493;-80
2021/12/16 13:29:15;;;;;;;26.88;14.70;;;;;;;8.90;93.65;102448.84;5012079;28;20076;-80
2021/12/16 13:32:10;;;;;;;28.10;15.05;;;;;;;8.88;93.42;102447.94;5012583;28;20069;-81
2021/12/16 13:35:04;;;;;;;27.42;14.32;;;;;;;8.89;93.42;102451.47;5006419;28;20033;-81
2021/12/16 13:37:44;;;;;;;30.13;16.35;;;;;;;8.85;93.57;102449.56;4998446;28;20065;-81
2021/12/16 13:40:18;;;;;;;26.15;14.63;;;;;;;8.84;94.63;102446.03;5013953;28;20385;-81
2021/12/16 13:42:57;;;;;;;22.45;13.43;;;;;;;8.85;94.24;102458.34;5018253;28;20084;-80
2021/12/16 13:45:46;;;;;;;25.27;14.00;;;;;;;8.80;94.39;102456.41;5007828;28;20038;-82
2021/12/16 14:00:28;;;;;;;29.38;15.27;;;;;;;8.76;95.28;102474.75;4987246;28;20428;-81
2021/12/16 14:05:40;;;;;;;22.77;13.55;;;;;;;8.77;94.97;102473.00;5005462;28;20037;-80
2021/12/16 14:08:09;;;;;;;21.88;11.63;;;;;;;8.75;94.78;102477.31;4987088;28;20497;-81
2021/12/16 14:10:56;;;;;;;17.55;10.43;;;;;;;8.80;93.40;102474.84;5005389;28;20049;-81
2021/12/16 14:16:15;;;;;;;18.45;11.30;;;;;;;8.82;93.65;102470.53;5003978;28;20043;-80